createdAt,value
2018-03-08T00:02:07.660Z,7.33
2018-03-08T00:04:36.918Z,6.77
2018-03-08T00:07:06.468Z,7.80
2018-03-08T00:09:35.704Z,14.67
2018-03-08T00:12:04.973Z,10.57
2018-03-08T00:14:34.237Z,8.87
2018-03-08T00:17:03.497Z,12.33
2018-03-08T00:19:32.803Z,7.30
2018-03-08T00:22:02.052Z,13.63
2018-03-08T00:24:32.880Z,7.17
2018-03-08T00:27:02.202Z,8.93
2018-03-08T00:29:32.344Z,8.13
2018-03-08T00:32:08.786Z,9.70
2018-03-08T00:34:38.992Z,10.67
2018-03-08T00:37:09.584Z,8.67
2018-03-08T00:39:40.087Z,8.90
2018-03-08T00:42:09.335Z,7.17
2018-03-08T00:44:38.743Z,6.80
2018-03-08T00:47:08.267Z,6.53
2018-03-08T00:49:43.726Z,6.73
2018-03-08T00:52:14.080Z,7.77
2018-03-08T00:54:43.300Z,11.03
2018-03-08T00:57:12.579Z,7.93
2018-03-08T00:59:42.609Z,7.40
2018-03-08T01:02:11.977Z,6.73
2018-03-08T01:05:08.776Z,8.83
2018-03-08T01:08:08.595Z,7.70
2018-03-08T01:10:38.519Z,7.90
2018-03-08T01:13:08.026Z,7.87
2018-03-08T01:15:37.350Z,8.20
2018-03-08T01:18:06.752Z,6.80
2018-03-08T01:20:36.028Z,6.97
2018-03-08T01:23:05.283Z,9.13
2018-03-08T01:25:35.338Z,8.10
2018-03-08T01:28:12.403Z,7.53
2018-03-08T01:30:41.704Z,11.73
2018-03-08T01:33:38.496Z,6.80
2018-03-08T01:36:25.413Z,6.53
2018-03-08T01:39:00.000Z,7.67
2018-03-08T01:41:30.224Z,10.43
2018-03-08T01:43:59.512Z,8.83
2018-03-08T01:46:28.813Z,8.00
2018-03-08T01:49:02.617Z,7.53
2018-03-08T01:51:32.296Z,6.70
2018-03-08T01:54:03.371Z,7.00
2018-03-08T01:56:33.251Z,7.40
2018-03-08T01:59:02.515Z,5.93
2018-03-08T02:01:31.764Z,6.53
2018-03-08T02:04:01.085Z,5.60
2018-03-08T02:06:30.379Z,8.90
2018-03-08T02:08:59.648Z,6.30
2018-03-08T02:11:28.929Z,9.23
2018-03-08T02:14:10.575Z,13.63
2018-03-08T02:16:39.875Z,8.37
2018-03-08T02:19:09.275Z,8.00
2018-03-08T02:21:39.851Z,7.77
2018-03-08T02:24:09.276Z,6.00
2018-03-08T02:26:48.002Z,6.40
2018-03-08T02:29:19.347Z,9.13
2018-03-08T02:31:48.619Z,10.33
2018-03-08T02:34:17.876Z,8.03
2018-03-08T02:36:47.212Z,8.70
2018-03-08T02:39:24.572Z,7.80
2018-03-08T02:41:54.186Z,6.23
2018-03-08T02:44:23.471Z,8.30
2018-03-08T02:46:52.868Z,7.87
2018-03-08T02:49:38.685Z,5.63
2018-03-08T02:52:08.003Z,4.90
2018-03-08T02:54:37.262Z,6.27
2018-03-08T02:57:06.553Z,6.33
2018-03-08T02:59:36.478Z,7.13
2018-03-08T03:02:05.774Z,6.13
2018-03-08T03:04:35.055Z,9.57
2018-03-08T03:07:04.734Z,8.33
2018-03-08T03:09:34.006Z,6.70
2018-03-08T03:12:04.840Z,9.00
2018-03-08T03:14:34.098Z,7.77
2018-03-08T03:17:03.374Z,8.93
2018-03-08T03:19:32.637Z,6.03
2018-03-08T03:24:49.672Z,5.43
2018-03-08T03:27:18.975Z,6.53
2018-03-08T03:29:48.270Z,5.97
2018-03-08T03:32:18.919Z,7.27
2018-03-08T03:34:49.095Z,9.03
2018-03-08T03:37:20.106Z,7.27
2018-03-08T03:39:49.618Z,8.30
2018-03-08T03:42:18.883Z,6.63
2018-03-08T03:44:49.118Z,8.63
2018-03-08T03:47:18.412Z,15.13
2018-03-08T03:49:47.680Z,4.97
2018-03-08T03:52:17.323Z,7.37
2018-03-08T03:54:46.606Z,6.67
2018-03-08T03:57:16.639Z,7.00
2018-03-08T03:59:45.934Z,10.40
2018-03-08T04:02:15.188Z,9.27
2018-03-08T04:04:44.531Z,9.40
2018-03-08T04:07:13.765Z,6.83
2018-03-08T04:09:44.182Z,7.10
2018-03-08T04:12:13.472Z,9.20
2018-03-08T04:14:42.680Z,6.87
2018-03-08T04:17:12.344Z,7.43
2018-03-08T04:19:41.590Z,7.43
2018-03-08T04:22:10.905Z,6.27
2018-03-08T04:24:40.482Z,5.70
2018-03-08T04:27:11.014Z,7.37
2018-03-08T04:29:40.341Z,7.30
2018-03-08T04:32:10.558Z,8.30
2018-03-08T04:34:39.868Z,7.23
2018-03-08T04:37:13.889Z,7.53
2018-03-08T04:39:43.339Z,8.17
2018-03-08T04:42:12.643Z,10.00
2018-03-08T04:44:42.678Z,7.77
2018-03-08T04:47:11.962Z,7.37
2018-03-08T04:49:42.003Z,6.93
2018-03-08T04:52:13.954Z,5.67
2018-03-08T04:54:55.797Z,7.87
2018-03-08T04:57:25.072Z,7.00
2018-03-08T04:59:54.367Z,6.83
2018-03-08T05:02:26.482Z,7.93
2018-03-08T05:04:57.576Z,6.50
2018-03-08T05:07:26.882Z,6.40
2018-03-08T05:09:56.163Z,8.50
2018-03-08T05:12:25.459Z,6.90
2018-03-08T05:14:56.559Z,8.67
2018-03-08T05:17:30.725Z,8.30
2018-03-08T05:20:00.110Z,6.50
2018-03-08T05:22:29.892Z,8.07
2018-03-08T05:24:59.167Z,8.07
2018-03-08T05:27:39.169Z,10.05
2018-03-08T05:30:08.662Z,8.40
2018-03-08T05:32:38.006Z,10.50
2018-03-08T05:35:10.180Z,9.27
2018-03-08T05:37:39.805Z,8.60
2018-03-08T05:40:09.819Z,15.52
2018-03-08T05:42:41.781Z,9.10
2018-03-08T05:45:11.038Z,11.18
2018-03-08T05:47:40.356Z,8.23
2018-03-08T05:50:09.654Z,11.57
2018-03-08T05:52:40.626Z,10.80
2018-03-08T05:58:14.666Z,10.07
2018-03-08T06:00:43.944Z,11.45
2018-03-08T06:03:13.204Z,9.43
2018-03-08T06:05:44.469Z,9.40
2018-03-08T06:08:13.743Z,9.97
2018-03-08T06:10:43.022Z,9.10
2018-03-08T06:13:12.322Z,12.73
2018-03-08T06:15:41.583Z,13.97
2018-03-08T06:18:11.910Z,12.60
2018-03-08T06:20:42.009Z,11.83
2018-03-08T06:23:11.590Z,13.93
2018-03-08T06:25:40.856Z,8.33
2018-03-08T06:28:10.128Z,15.20
2018-03-08T06:30:39.438Z,13.07
2018-03-08T06:33:08.720Z,12.80
2018-03-08T06:35:38.200Z,14.20
2018-03-08T06:38:07.603Z,12.17
2018-03-08T06:40:36.851Z,15.77
2018-03-08T06:43:07.426Z,13.67
2018-03-08T06:45:37.529Z,14.53
2018-03-08T06:48:07.585Z,18.27
2018-03-08T06:50:36.930Z,13.70
2018-03-08T06:53:06.187Z,14.90
2018-03-08T06:55:35.487Z,13.40
2018-03-08T06:58:04.794Z,14.20
2018-03-08T07:00:34.147Z,17.30
2018-03-08T07:03:03.385Z,17.23
2018-03-08T07:05:32.660Z,13.17
2018-03-08T07:08:01.996Z,17.73
2018-03-08T07:10:31.267Z,16.30
2018-03-08T07:13:09.232Z,15.33
2018-03-08T07:15:38.497Z,11.27
2018-03-08T07:18:07.771Z,17.60
2018-03-08T07:20:37.056Z,14.23
2018-03-08T07:23:06.295Z,12.70
2018-03-08T07:25:35.578Z,16.23
2018-03-08T07:28:04.838Z,15.50
2018-03-08T07:30:35.173Z,14.27
2018-03-08T07:33:04.445Z,18.47
2018-03-08T07:35:33.720Z,13.37
2018-03-08T07:38:03.776Z,16.10
2018-03-08T07:40:33.043Z,12.77
2018-03-08T07:43:03.095Z,12.90
2018-03-08T07:45:32.398Z,13.33
2018-03-08T07:48:02.444Z,13.23
2018-03-08T07:50:31.773Z,13.33
2018-03-08T07:53:01.046Z,12.37
2018-03-08T07:55:30.665Z,10.80
2018-03-08T07:57:59.902Z,8.73
2018-03-08T08:00:29.213Z,10.43
2018-03-08T08:02:58.518Z,11.00
2018-03-08T08:08:53.153Z,10.50
2018-03-08T08:11:23.226Z,6.53
2018-03-08T08:13:52.553Z,9.43
2018-03-08T08:16:22.143Z,10.30
2018-03-08T08:18:51.439Z,8.10
2018-03-08T08:21:20.688Z,9.87
2018-03-08T08:23:49.971Z,8.07
2018-03-08T08:26:19.254Z,9.40
2018-03-08T08:28:49.585Z,6.30
2018-03-08T08:31:19.615Z,6.77
2018-03-08T08:33:49.943Z,9.40
2018-03-08T08:36:19.226Z,6.33
2018-03-08T08:38:48.501Z,9.40
2018-03-08T08:41:17.768Z,10.70
2018-03-08T08:43:47.203Z,6.80
2018-03-08T08:46:16.440Z,6.43
2018-03-08T08:48:46.087Z,6.30
2018-03-08T08:51:15.527Z,6.83
2018-03-08T08:53:44.779Z,8.47
2018-03-08T08:56:14.069Z,7.80
2018-03-08T08:58:43.349Z,7.57
2018-03-08T09:01:12.627Z,6.83
2018-03-08T09:03:41.901Z,6.87
2018-03-08T09:06:11.221Z,5.30
2018-03-08T09:08:40.494Z,8.10
2018-03-08T09:11:09.830Z,4.10
2018-03-08T09:13:40.029Z,4.50
2018-03-08T09:16:09.323Z,6.40
2018-03-08T09:18:38.642Z,5.10
2018-03-08T09:21:08.018Z,6.47
2018-03-08T09:23:37.310Z,4.57
2018-03-08T09:26:06.564Z,6.70
2018-03-08T09:28:36.605Z,5.37
2018-03-08T09:31:05.866Z,5.90
2018-03-08T09:33:35.171Z,7.67
2018-03-08T09:36:04.446Z,6.20
2018-03-08T09:38:34.668Z,5.77
2018-03-08T09:41:03.939Z,4.17
2018-03-08T09:43:33.220Z,8.60
2018-03-08T09:46:02.483Z,4.97
2018-03-08T09:48:31.860Z,6.80
2018-03-08T09:51:01.156Z,4.47
2018-03-08T09:53:30.406Z,6.87
2018-03-08T09:55:59.700Z,7.50
2018-03-08T09:58:28.955Z,5.43
2018-03-08T10:00:58.226Z,6.30
2018-03-08T10:03:27.485Z,5.87
2018-03-08T10:05:57.014Z,3.77
2018-03-08T10:08:27.022Z,3.93
2018-03-08T10:10:57.065Z,8.13
2018-03-08T10:13:26.352Z,6.10
2018-03-08T10:15:55.624Z,4.13
2018-03-08T10:18:24.959Z,3.17
2018-03-08T10:20:54.252Z,4.43
2018-03-08T10:23:23.562Z,4.97
2018-03-08T10:25:52.862Z,5.23
2018-03-08T10:28:22.111Z,5.40
2018-03-08T10:30:51.668Z,3.47
2018-03-08T10:33:20.921Z,6.23
2018-03-08T10:35:50.159Z,5.13
2018-03-08T10:38:19.463Z,3.87
2018-03-08T10:40:48.717Z,5.83
2018-03-08T10:43:18.221Z,2.73
2018-03-08T10:45:47.503Z,2.70
2018-03-08T10:48:16.765Z,5.50
2018-03-08T10:50:46.128Z,4.63
2018-03-08T10:53:15.391Z,3.10
2018-03-08T10:55:44.683Z,12.60
2018-03-08T10:58:13.944Z,6.10
2018-03-08T11:00:47.038Z,3.87
2018-03-08T11:03:16.282Z,5.97
2018-03-08T11:05:47.346Z,6.60
2018-03-08T11:08:30.758Z,6.70
2018-03-08T11:11:00.433Z,4.17
2018-03-08T11:13:29.698Z,6.53
2018-03-08T11:15:59.014Z,3.43
2018-03-08T11:18:28.329Z,5.40
2018-03-08T11:20:57.658Z,5.47
2018-03-08T11:23:26.940Z,5.40
2018-03-08T11:25:56.206Z,3.60
2018-03-08T11:28:25.507Z,5.20
2018-03-08T11:30:55.524Z,3.23
2018-03-08T11:33:25.959Z,6.27
2018-03-08T11:38:30.271Z,4.00
2018-03-08T11:40:59.520Z,5.90
2018-03-08T11:43:28.759Z,3.90
2018-03-08T11:45:58.036Z,9.77
2018-03-08T11:48:27.818Z,4.13
2018-03-08T11:50:57.831Z,6.03
2018-03-08T11:53:26.397Z,3.33
2018-03-08T11:55:55.690Z,2.60
2018-03-08T11:58:24.944Z,3.80
2018-03-08T12:00:54.252Z,6.20
2018-03-08T12:03:23.534Z,2.97
2018-03-08T12:05:53.064Z,2.60
2018-03-08T12:08:22.331Z,3.50
2018-03-08T12:10:51.602Z,1.90
2018-03-08T12:13:20.906Z,2.47
2018-03-08T12:15:50.180Z,2.90
2018-03-08T12:18:19.497Z,5.17
2018-03-08T12:20:49.069Z,2.30
2018-03-08T12:23:18.431Z,8.73
2018-03-08T12:26:14.276Z,2.37
2018-03-08T12:28:45.027Z,1.93
2018-03-08T12:31:15.108Z,3.23
2018-03-08T12:33:45.891Z,2.77
2018-03-08T12:38:49.887Z,3.17
2018-03-08T12:41:19.166Z,1.40
2018-03-08T12:43:48.438Z,1.17
2018-03-08T12:46:17.727Z,4.67
2018-03-08T12:48:46.992Z,1.63
2018-03-08T12:51:16.247Z,2.00
2018-03-08T12:53:45.520Z,5.20
2018-03-08T12:56:14.815Z,1.20
2018-03-08T12:58:44.182Z,3.80
2018-03-08T13:01:13.468Z,1.00
2018-03-08T13:03:42.743Z,1.77
2018-03-08T13:06:14.447Z,5.10
2018-03-08T13:08:43.694Z,1.30
2018-03-08T13:13:55.808Z,3.03
2018-03-08T13:19:42.441Z,0.80
2018-03-08T13:22:11.715Z,1.50
2018-03-08T13:24:41.007Z,2.70
2018-03-08T13:27:10.270Z,3.67
2018-03-08T13:29:40.325Z,0.67
2018-03-08T13:32:09.606Z,4.27
2018-03-08T13:34:38.910Z,2.63
2018-03-08T13:37:08.179Z,1.13
2018-03-08T13:39:38.216Z,3.23
2018-03-08T13:42:12.187Z,3.03
2018-03-08T13:44:45.334Z,1.80
2018-03-08T13:47:15.516Z,2.10
2018-03-08T13:49:44.763Z,0.87
2018-03-08T13:52:14.900Z,5.03
2018-03-08T13:54:44.932Z,1.90
2018-03-08T13:57:17.211Z,2.10
2018-03-08T13:59:46.831Z,0.87
2018-03-08T14:02:17.417Z,1.80
2018-03-08T14:04:46.644Z,4.03
2018-03-08T14:07:15.923Z,2.53
2018-03-08T14:09:45.223Z,2.30
2018-03-08T14:12:14.552Z,2.67
2018-03-08T14:14:44.562Z,1.03
2018-03-08T14:17:13.864Z,6.50
2018-03-08T14:19:43.336Z,4.07
2018-03-08T14:22:12.835Z,1.00
2018-03-08T14:24:42.245Z,1.93
2018-03-08T14:27:11.623Z,1.70
2018-03-08T14:29:41.646Z,1.53
2018-03-08T14:32:10.983Z,4.03
2018-03-08T14:34:40.296Z,2.13
2018-03-08T14:39:44.040Z,2.20
2018-03-08T14:42:13.340Z,2.53
2018-03-08T14:44:42.618Z,1.00
2018-03-08T14:47:12.070Z,3.00
2018-03-08T14:49:41.461Z,0.77
2018-03-08T14:52:10.783Z,2.30
2018-03-08T14:54:42.182Z,0.77
2018-03-08T14:57:17.974Z,1.20
2018-03-08T14:59:47.301Z,1.97
2018-03-08T15:04:56.110Z,1.23
2018-03-08T15:07:25.480Z,2.00
2018-03-08T15:09:54.758Z,1.43
2018-03-08T15:12:24.047Z,0.90
2018-03-08T15:14:53.316Z,2.17
2018-03-08T15:17:36.759Z,0.80
2018-03-08T15:20:06.839Z,0.93
2018-03-08T15:22:36.112Z,3.40
2018-03-08T15:25:06.522Z,2.37
2018-03-08T15:27:35.790Z,3.43
2018-03-08T15:30:05.827Z,2.50
2018-03-08T15:32:35.135Z,1.20
2018-03-08T15:35:05.379Z,2.90
2018-03-08T15:37:34.642Z,3.30
2018-03-08T15:40:09.925Z,3.10
2018-03-08T15:42:39.219Z,2.30
2018-03-08T15:45:08.502Z,2.63
2018-03-08T15:47:40.600Z,0.63
2018-03-08T15:50:09.916Z,4.20
2018-03-08T15:52:39.254Z,2.13
2018-03-08T15:55:10.586Z,1.00
2018-03-08T15:57:40.752Z,7.10
2018-03-08T16:00:10.042Z,1.77
2018-03-08T16:05:33.063Z,1.57
2018-03-08T16:11:47.772Z,6.73
2018-03-08T16:14:17.112Z,1.43
2018-03-08T16:16:46.354Z,1.77
2018-03-08T16:19:15.643Z,2.63
2018-03-08T16:21:44.918Z,1.40
2018-03-08T16:24:14.982Z,3.63
2018-03-08T16:26:44.610Z,1.23
2018-03-08T16:29:13.946Z,1.73
2018-03-08T16:31:43.244Z,1.23
2018-03-08T16:34:13.446Z,0.77
2018-03-08T16:36:43.039Z,0.70
2018-03-08T16:39:12.859Z,1.70
2018-03-08T16:41:42.156Z,1.80
2018-03-08T16:44:11.412Z,2.00
2018-03-08T16:46:40.718Z,3.20
2018-03-08T16:49:12.042Z,1.90
2018-03-08T16:51:41.368Z,2.03
2018-03-08T16:54:10.647Z,2.30
2018-03-08T16:56:39.966Z,3.53
2018-03-08T16:59:11.264Z,1.57
2018-03-08T17:01:40.791Z,1.97
2018-03-08T17:04:10.067Z,3.30
2018-03-08T17:06:39.370Z,3.03
2018-03-08T17:09:08.744Z,1.80
2018-03-08T17:11:38.034Z,1.80
2018-03-08T17:14:08.759Z,3.50
2018-03-08T17:16:38.053Z,1.97
2018-03-08T17:19:07.449Z,1.90
2018-03-08T17:21:36.734Z,4.87
2018-03-08T17:24:06.007Z,1.10
2018-03-08T17:26:35.306Z,1.60
2018-03-08T17:29:04.555Z,4.67
2018-03-08T17:31:34.174Z,6.33
2018-03-08T17:34:04.236Z,0.67
2018-03-08T17:36:33.529Z,1.70
2018-03-08T17:39:02.817Z,2.80
2018-03-08T17:41:32.074Z,2.33
2018-03-08T17:44:01.466Z,1.27
2018-03-08T17:46:31.489Z,2.17
2018-03-08T17:49:01.604Z,3.50
2018-03-08T17:51:30.830Z,1.60
2018-03-08T17:54:00.887Z,1.30
2018-03-08T17:56:30.159Z,3.17
2018-03-08T18:01:49.428Z,0.80
2018-03-08T18:04:18.679Z,1.63
2018-03-08T18:06:47.987Z,2.57
2018-03-08T18:09:17.292Z,0.97
2018-03-08T18:11:46.881Z,2.87
2018-03-08T18:14:16.874Z,0.90
2018-03-08T18:16:46.155Z,1.03
2018-03-08T18:19:15.428Z,0.60
2018-03-08T18:21:44.772Z,3.03
2018-03-08T18:24:14.050Z,0.93
2018-03-08T18:26:43.474Z,2.93
2018-03-08T18:29:12.843Z,2.20
2018-03-08T18:31:42.227Z,0.73
2018-03-08T18:34:13.840Z,1.70
2018-03-08T18:36:43.187Z,1.53
2018-03-08T18:39:12.475Z,1.77
2018-03-08T18:41:41.896Z,1.50
2018-03-08T18:44:11.171Z,1.90
2018-03-08T18:46:40.800Z,2.23
2018-03-08T18:49:10.246Z,2.03
2018-03-08T18:54:23.782Z,0.50
2018-03-08T18:56:55.453Z,1.17
2018-03-08T18:59:24.964Z,0.77
2018-03-08T19:01:55.376Z,0.50
2018-03-08T19:04:24.648Z,1.07
2018-03-08T19:07:06.430Z,0.43
2018-03-08T19:09:36.498Z,0.40
2018-03-08T19:12:08.911Z,1.47
2018-03-08T19:14:39.700Z,0.70
2018-03-08T19:17:09.052Z,0.43
2018-03-08T19:19:39.620Z,0.40
2018-03-08T19:22:09.083Z,0.60
2018-03-08T19:24:43.099Z,1.00
2018-03-08T19:27:12.346Z,0.57
2018-03-08T19:29:41.728Z,0.70
2018-03-08T19:32:11.825Z,2.50
2018-03-08T19:34:41.233Z,1.57
2018-03-08T19:37:10.579Z,0.77
2018-03-08T19:39:39.994Z,0.57
2018-03-08T19:42:10.210Z,2.93
2018-03-08T19:44:39.533Z,3.03
2018-03-08T19:47:10.124Z,1.03
2018-03-08T19:49:40.554Z,0.50
2018-03-08T19:52:10.847Z,1.73
2018-03-08T19:54:40.319Z,1.00
2018-03-08T19:57:10.351Z,5.10
2018-03-08T19:59:40.708Z,0.60
2018-03-08T20:02:12.038Z,0.70
2018-03-08T20:04:41.480Z,0.70
2018-03-08T20:07:11.453Z,1.10
2018-03-08T20:09:42.250Z,1.00
2018-03-08T20:12:12.487Z,1.00
2018-03-08T20:14:42.811Z,1.23
2018-03-08T20:17:12.497Z,1.00
2018-03-08T20:19:41.953Z,3.00
2018-03-08T20:22:11.278Z,2.07
2018-03-08T20:24:40.566Z,0.80
2018-03-08T20:27:10.305Z,1.83
2018-03-08T20:29:39.580Z,0.80
2018-03-08T20:32:08.915Z,0.60
2018-03-08T20:34:38.324Z,0.63
2018-03-08T20:37:07.632Z,5.07
2018-03-08T20:39:37.652Z,1.13
2018-03-08T20:42:07.270Z,1.53
2018-03-08T20:44:36.531Z,0.87
2018-03-08T20:47:05.820Z,0.77
2018-03-08T20:49:35.337Z,0.63
2018-03-08T20:52:05.952Z,2.17
2018-03-08T20:54:45.878Z,0.97
2018-03-08T20:57:15.308Z,1.27
2018-03-08T20:59:52.566Z,1.90
2018-03-08T21:02:23.185Z,1.23
2018-03-08T21:04:55.395Z,3.90
2018-03-08T21:07:24.698Z,0.60
2018-03-08T21:09:54.264Z,0.77
2018-03-08T21:12:23.533Z,0.70
2018-03-08T21:14:54.043Z,1.20
2018-03-08T21:17:24.800Z,2.80
2018-03-08T21:19:54.318Z,1.00
2018-03-08T21:22:23.614Z,1.80
2018-03-08T21:24:52.914Z,0.83
2018-03-08T21:27:22.205Z,1.33
2018-03-08T21:29:51.532Z,1.47
2018-03-08T21:32:20.833Z,1.20
2018-03-08T21:34:50.083Z,4.40
2018-03-08T21:37:20.147Z,0.93
2018-03-08T21:39:49.411Z,1.10
2018-03-08T21:42:26.504Z,0.97
2018-03-08T21:44:56.532Z,2.60
2018-03-08T21:47:25.805Z,2.23
2018-03-08T21:49:55.083Z,1.90
2018-03-08T21:52:24.688Z,2.83
2018-03-08T21:54:54.696Z,5.63
2018-03-08T21:57:24.048Z,3.10
2018-03-08T21:59:53.368Z,1.57
2018-03-08T22:02:28.167Z,2.63
2018-03-08T22:04:58.218Z,3.13
2018-03-08T22:07:27.471Z,1.70
2018-03-08T22:09:56.743Z,0.80
2018-03-08T22:12:26.008Z,2.10
2018-03-08T22:14:55.264Z,1.10
2018-03-08T22:17:24.561Z,1.27
2018-03-08T22:19:53.822Z,0.80
2018-03-08T22:22:24.095Z,1.50
2018-03-08T22:24:53.357Z,0.90
2018-03-08T22:27:22.633Z,1.13
2018-03-08T22:29:52.651Z,0.83
2018-03-08T22:32:23.015Z,2.70
2018-03-08T22:34:53.069Z,1.60
2018-03-08T22:37:22.357Z,1.73
2018-03-08T22:39:51.652Z,2.10
2018-03-08T22:42:21.694Z,1.00
2018-03-08T22:44:51.029Z,1.23
2018-03-08T22:47:20.315Z,1.60
2018-03-08T22:49:49.591Z,1.20
2018-03-08T22:52:19.159Z,5.53
2018-03-08T22:54:48.414Z,1.13
2018-03-08T22:57:17.689Z,3.23
2018-03-08T22:59:46.960Z,1.10
2018-03-08T23:02:16.247Z,3.60
2018-03-08T23:04:45.508Z,1.70
2018-03-08T23:07:16.808Z,3.30
2018-03-08T23:09:46.043Z,1.53
2018-03-08T23:12:15.426Z,1.50
2018-03-08T23:14:44.729Z,2.30
2018-03-08T23:17:14.015Z,2.23
2018-03-08T23:19:43.343Z,1.37
2018-03-08T23:22:12.592Z,1.87
2018-03-08T23:24:42.279Z,1.07
2018-03-08T23:27:11.531Z,3.03
2018-03-08T23:29:40.864Z,2.10
2018-03-08T23:32:10.303Z,3.00
2018-03-08T23:34:39.576Z,1.50
2018-03-08T23:37:08.873Z,1.27
2018-03-08T23:39:38.583Z,1.30
2018-03-08T23:42:13.281Z,1.50
2018-03-08T23:44:43.312Z,0.90
2018-03-08T23:47:12.693Z,1.20
2018-03-08T23:49:42.751Z,0.90
2018-03-08T23:52:12.357Z,1.30
2018-03-08T23:54:41.641Z,1.90
2018-03-08T23:57:10.934Z,1.77
2018-03-08T23:59:40.207Z,1.80
